sensor_id;sensor_type;location;lat;lon;timestamp;P1;durP1;ratioP1;P2;durP2;ratioP2
77586;SDS011;66744;49.716;17.158;2024-02-04T00:01:34;2.20;;;1.83;;
77586;SDS011;66744;49.716;17.158;2024-02-04T00:04:37;8.75;;;6.72;;
77586;SDS011;66744;49.716;17.158;2024-02-04T00:07:39;9.25;;;5.95;;
77586;SDS011;66744;49.716;17.158;2024-02-04T00:10:40;7.97;;;5.55;;
77586;SDS011;66744;49.716;17.158;2024-02-04T00:13:42;4.28;;;3.30;;
77586;SDS011;66744;49.716;17.158;2024-02-04T00:16:47;2.67;;;1.48;;
77586;SDS011;66744;49.716;17.158;2024-02-04T00:19:50;1.55;;;1.45;;
77586;SDS011;66744;49.716;17.158;2024-02-04T00:22:51;2.00;;;1.67;;
77586;SDS011;66744;49.716;17.158;2024-02-04T00:25:53;1.77;;;1.52;;
77586;SDS011;66744;49.716;17.158;2024-02-04T00:28:56;1.45;;;1.35;;
77586;SDS011;66744;49.716;17.158;2024-02-04T00:31:58;1.50;;;1.40;;
77586;SDS011;66744;49.716;17.158;2024-02-04T00:35:00;2.10;;;1.65;;
77586;SDS011;66744;49.716;17.158;2024-02-04T00:38:01;1.42;;;1.20;;
77586;SDS011;66744;49.716;17.158;2024-02-04T00:41:04;1.70;;;1.52;;
77586;SDS011;66744;49.716;17.158;2024-02-04T00:44:07;2.58;;;1.38;;
77586;SDS011;66744;49.716;17.158;2024-02-04T00:47:08;1.45;;;1.20;;
77586;SDS011;66744;49.716;17.158;2024-02-04T00:50:11;1.73;;;1.25;;
77586;SDS011;66744;49.716;17.158;2024-02-04T00:53:12;1.27;;;0.90;;
77586;SDS011;66744;49.716;17.158;2024-02-04T00:56:16;1.45;;;1.13;;
77586;SDS011;66744;49.716;17.158;2024-02-04T00:59:17;5.68;;;1.40;;
77586;SDS011;66744;49.716;17.158;2024-02-04T01:02:19;1.92;;;1.33;;
77586;SDS011;66744;49.716;17.158;2024-02-04T01:05:21;2.08;;;1.02;;
77586;SDS011;66744;49.716;17.158;2024-02-04T01:08:23;1.33;;;1.23;;
77586;SDS011;66744;49.716;17.158;2024-02-04T01:11:29;1.95;;;1.42;;
77586;SDS011;66744;49.716;17.158;2024-02-04T01:14:31;1.45;;;0.82;;
77586;SDS011;66744;49.716;17.158;2024-02-04T01:17:33;2.17;;;1.23;;
77586;SDS011;66744;49.716;17.158;2024-02-04T01:20:36;1.00;;;0.90;;
77586;SDS011;66744;49.716;17.158;2024-02-04T01:23:39;1.30;;;1.20;;
77586;SDS011;66744;49.716;17.158;2024-02-04T01:26:40;2.40;;;1.38;;
77586;SDS011;66744;49.716;17.158;2024-02-04T01:29:46;1.50;;;1.40;;
77586;SDS011;66744;49.716;17.158;2024-02-04T01:32:47;1.83;;;1.10;;
77586;SDS011;66744;49.716;17.158;2024-02-04T01:35:48;1.48;;;1.38;;
77586;SDS011;66744;49.716;17.158;2024-02-04T01:38:50;1.17;;;1.08;;
77586;SDS011;66744;49.716;17.158;2024-02-04T01:41:56;1.77;;;1.40;;
77586;SDS011;66744;49.716;17.158;2024-02-04T01:44:59;1.70;;;1.15;;
77586;SDS011;66744;49.716;17.158;2024-02-04T01:48:00;1.52;;;1.38;;
77586;SDS011;66744;49.716;17.158;2024-02-04T01:51:04;1.48;;;1.25;;
77586;SDS011;66744;49.716;17.158;2024-02-04T01:54:08;0.98;;;0.82;;
77586;SDS011;66744;49.716;17.158;2024-02-04T01:57:11;1.75;;;1.65;;
77586;SDS011;66744;49.716;17.158;2024-02-04T02:04:25;2.22;;;2.03;;
77586;SDS011;66744;49.716;17.158;2024-02-04T02:07:28;1.05;;;0.77;;
77586;SDS011;66744;49.716;17.158;2024-02-04T02:10:39;1.50;;;1.00;;
77586;SDS011;66744;49.716;17.158;2024-02-04T02:13:44;1.63;;;1.20;;
77586;SDS011;66744;49.716;17.158;2024-02-04T02:16:59;1.20;;;1.10;;
77586;SDS011;66744;49.716;17.158;2024-02-04T02:23:14;1.50;;;1.40;;
77586;SDS011;66744;49.716;17.158;2024-02-04T02:26:48;1.40;;;1.13;;
77586;SDS011;66744;49.716;17.158;2024-02-04T02:29:51;1.30;;;1.20;;
77586;SDS011;66744;49.716;17.158;2024-02-04T02:32:54;1.60;;;1.10;;
77586;SDS011;66744;49.716;17.158;2024-02-04T02:35:57;1.65;;;1.30;;
77586;SDS011;66744;49.716;17.158;2024-02-04T02:39:08;1.27;;;1.15;;
77586;SDS011;66744;49.716;17.158;2024-02-04T02:42:17;1.63;;;1.10;;
77586;SDS011;66744;49.716;17.158;2024-02-04T02:45:21;1.70;;;1.25;;
77586;SDS011;66744;49.716;17.158;2024-02-04T02:48:26;2.15;;;1.90;;
77586;SDS011;66744;49.716;17.158;2024-02-04T02:51:31;2.72;;;1.63;;
77586;SDS011;66744;49.716;17.158;2024-02-04T02:54:38;4.25;;;1.58;;
77586;SDS011;66744;49.716;17.158;2024-02-04T02:57:42;1.10;;;1.00;;
77586;SDS011;66744;49.716;17.158;2024-02-04T03:00:44;1.73;;;1.15;;
77586;SDS011;66744;49.716;17.158;2024-02-04T03:03:49;1.23;;;1.13;;
77586;SDS011;66744;49.716;17.158;2024-02-04T03:06:52;1.63;;;1.05;;
77586;SDS011;66744;49.716;17.158;2024-02-04T03:09:59;2.88;;;1.50;;
77586;SDS011;66744;49.716;17.158;2024-02-04T03:13:00;1.15;;;1.05;;
77586;SDS011;66744;49.716;17.158;2024-02-04T03:16:03;1.23;;;1.13;;
77586;SDS011;66744;49.716;17.158;2024-02-04T03:19:05;2.58;;;1.38;;
77586;SDS011;66744;49.716;17.158;2024-02-04T03:22:12;1.17;;;0.88;;
77586;SDS011;66744;49.716;17.158;2024-02-04T03:25:17;1.23;;;1.13;;
77586;SDS011;66744;49.716;17.158;2024-02-04T03:28:20;1.63;;;1.17;;
77586;SDS011;66744;49.716;17.158;2024-02-04T03:31:24;1.40;;;1.30;;
77586;SDS011;66744;49.716;17.158;2024-02-04T03:34:28;2.85;;;1.00;;
77586;SDS011;66744;49.716;17.158;2024-02-04T03:37:31;1.30;;;1.20;;
77586;SDS011;66744;49.716;17.158;2024-02-04T03:40:33;1.25;;;1.15;;
77586;SDS011;66744;49.716;17.158;2024-02-04T03:43:36;1.15;;;0.93;;
77586;SDS011;66744;49.716;17.158;2024-02-04T03:46:41;1.02;;;0.88;;
77586;SDS011;66744;49.716;17.158;2024-02-04T03:49:43;1.35;;;1.10;;
77586;SDS011;66744;49.716;17.158;2024-02-04T03:52:46;1.00;;;0.93;;
77586;SDS011;66744;49.716;17.158;2024-02-04T03:55:49;1.63;;;1.20;;
77586;SDS011;66744;49.716;17.158;2024-02-04T03:58:50;1.70;;;1.15;;
77586;SDS011;66744;49.716;17.158;2024-02-04T04:01:55;0.95;;;0.80;;
77586;SDS011;66744;49.716;17.158;2024-02-04T04:05:00;1.00;;;0.90;;
77586;SDS011;66744;49.716;17.158;2024-02-04T04:08:05;1.50;;;1.23;;
77586;SDS011;66744;49.716;17.158;2024-02-04T04:11:11;1.20;;;1.10;;
77586;SDS011;66744;49.716;17.158;2024-02-04T04:14:13;1.17;;;0.90;;
77586;SDS011;66744;49.716;17.158;2024-02-04T04:17:15;1.00;;;0.90;;
77586;SDS011;66744;49.716;17.158;2024-02-04T04:20:21;1.30;;;1.20;;
77586;SDS011;66744;49.716;17.158;2024-02-04T04:23:22;1.40;;;1.13;;
77586;SDS011;66744;49.716;17.158;2024-02-04T04:26:28;1.55;;;1.17;;
77586;SDS011;66744;49.716;17.158;2024-02-04T04:29:31;0.75;;;0.75;;
77586;SDS011;66744;49.716;17.158;2024-02-04T04:32:37;0.90;;;0.85;;
77586;SDS011;66744;49.716;17.158;2024-02-04T04:35:39;1.30;;;1.00;;
77586;SDS011;66744;49.716;17.158;2024-02-04T04:38:41;0.90;;;0.80;;
77586;SDS011;66744;49.716;17.158;2024-02-04T04:41:46;1.45;;;0.93;;
77586;SDS011;66744;49.716;17.158;2024-02-04T04:44:50;0.88;;;0.88;;
77586;SDS011;66744;49.716;17.158;2024-02-04T04:47:52;0.80;;;0.80;;
77586;SDS011;66744;49.716;17.158;2024-02-04T04:50:56;0.65;;;0.63;;
77586;SDS011;66744;49.716;17.158;2024-02-04T04:53:59;0.80;;;0.73;;
77586;SDS011;66744;49.716;17.158;2024-02-04T04:57:02;0.73;;;0.68;;
77586;SDS011;66744;49.716;17.158;2024-02-04T05:00:06;0.93;;;0.82;;
77586;SDS011;66744;49.716;17.158;2024-02-04T05:03:09;0.82;;;0.82;;
77586;SDS011;66744;49.716;17.158;2024-02-04T05:06:11;2.28;;;1.23;;
77586;SDS011;66744;49.716;17.158;2024-02-04T05:09:13;0.80;;;0.70;;
77586;SDS011;66744;49.716;17.158;2024-02-04T05:12:19;0.95;;;0.52;;
77586;SDS011;66744;49.716;17.158;2024-02-04T05:15:24;0.95;;;0.68;;
77586;SDS011;66744;49.716;17.158;2024-02-04T05:18:26;0.98;;;0.82;;
77586;SDS011;66744;49.716;17.158;2024-02-04T05:21:28;0.95;;;0.73;;
77586;SDS011;66744;49.716;17.158;2024-02-04T05:24:31;0.82;;;0.82;;
77586;SDS011;66744;49.716;17.158;2024-02-04T05:27:36;0.75;;;0.75;;
77586;SDS011;66744;49.716;17.158;2024-02-04T05:30:38;1.50;;;0.77;;
77586;SDS011;66744;49.716;17.158;2024-02-04T05:33:42;1.30;;;0.82;;
77586;SDS011;66744;49.716;17.158;2024-02-04T05:36:43;1.13;;;0.90;;
77586;SDS011;66744;49.716;17.158;2024-02-04T05:39:45;0.73;;;0.65;;
77586;SDS011;66744;49.716;17.158;2024-02-04T05:42:49;2.03;;;0.85;;
77586;SDS011;66744;49.716;17.158;2024-02-04T05:45:51;2.45;;;0.93;;
77586;SDS011;66744;49.716;17.158;2024-02-04T05:48:55;1.35;;;1.08;;
77586;SDS011;66744;49.716;17.158;2024-02-04T05:51:59;0.63;;;0.52;;
77586;SDS011;66744;49.716;17.158;2024-02-04T05:55:01;0.82;;;0.82;;
77586;SDS011;66744;49.716;17.158;2024-02-04T05:58:08;3.50;;;0.88;;
77586;SDS011;66744;49.716;17.158;2024-02-04T06:01:12;1.17;;;1.00;;
77586;SDS011;66744;49.716;17.158;2024-02-04T06:04:16;1.33;;;1.23;;
77586;SDS011;66744;49.716;17.158;2024-02-04T06:07:19;1.20;;;1.00;;
77586;SDS011;66744;49.716;17.158;2024-02-04T06:10:24;1.98;;;1.40;;
77586;SDS011;66744;49.716;17.158;2024-02-04T06:13:26;1.30;;;1.20;;
77586;SDS011;66744;49.716;17.158;2024-02-04T06:16:32;1.00;;;0.95;;
77586;SDS011;66744;49.716;17.158;2024-02-04T06:19:35;1.00;;;0.90;;
77586;SDS011;66744;49.716;17.158;2024-02-04T06:22:37;1.08;;;0.73;;
77586;SDS011;66744;49.716;17.158;2024-02-04T06:25:39;1.48;;;1.05;;
77586;SDS011;66744;49.716;17.158;2024-02-04T06:28:41;1.25;;;1.15;;
77586;SDS011;66744;49.716;17.158;2024-02-04T06:31:47;1.40;;;1.27;;
77586;SDS011;66744;49.716;17.158;2024-02-04T06:34:48;0.75;;;0.52;;
77586;SDS011;66744;49.716;17.158;2024-02-04T06:37:51;1.17;;;0.90;;
77586;SDS011;66744;49.716;17.158;2024-02-04T06:40:52;1.35;;;1.25;;
77586;SDS011;66744;49.716;17.158;2024-02-04T06:43:54;1.15;;;1.00;;
77586;SDS011;66744;49.716;17.158;2024-02-04T06:47:01;1.75;;;1.05;;
77586;SDS011;66744;49.716;17.158;2024-02-04T06:50:04;1.75;;;0.80;;
77586;SDS011;66744;49.716;17.158;2024-02-04T06:53:17;2.28;;;1.20;;
77586;SDS011;66744;49.716;17.158;2024-02-04T06:56:22;0.90;;;0.88;;
77586;SDS011;66744;49.716;17.158;2024-02-04T06:59:24;1.27;;;1.02;;
77586;SDS011;66744;49.716;17.158;2024-02-04T07:02:28;2.10;;;1.15;;
77586;SDS011;66744;49.716;17.158;2024-02-04T07:05:29;1.20;;;1.10;;
77586;SDS011;66744;49.716;17.158;2024-02-04T07:08:32;1.98;;;1.75;;
77586;SDS011;66744;49.716;17.158;2024-02-04T07:11:39;1.60;;;1.40;;
77586;SDS011;66744;49.716;17.158;2024-02-04T07:14:43;2.58;;;1.90;;
77586;SDS011;66744;49.716;17.158;2024-02-04T07:17:48;1.50;;;1.40;;
77586;SDS011;66744;49.716;17.158;2024-02-04T07:20:50;1.40;;;1.30;;
77586;SDS011;66744;49.716;17.158;2024-02-04T07:23:51;2.42;;;1.80;;
77586;SDS011;66744;49.716;17.158;2024-02-04T07:26:54;1.15;;;0.80;;
77586;SDS011;66744;49.716;17.158;2024-02-04T07:29:57;1.48;;;1.27;;
77586;SDS011;66744;49.716;17.158;2024-02-04T07:33:05;1.63;;;1.23;;
77586;SDS011;66744;49.716;17.158;2024-02-04T07:36:07;2.45;;;1.40;;
77586;SDS011;66744;49.716;17.158;2024-02-04T07:39:09;2.15;;;1.10;;
77586;SDS011;66744;49.716;17.158;2024-02-04T07:42:14;0.93;;;0.63;;
77586;SDS011;66744;49.716;17.158;2024-02-04T07:45:17;0.98;;;0.82;;
77586;SDS011;66744;49.716;17.158;2024-02-04T07:48:21;1.70;;;0.80;;
77586;SDS011;66744;49.716;17.158;2024-02-04T07:51:23;1.70;;;0.73;;
77586;SDS011;66744;49.716;17.158;2024-02-04T07:54:27;1.63;;;1.10;;
77586;SDS011;66744;49.716;17.158;2024-02-04T07:57:30;0.88;;;0.80;;
77586;SDS011;66744;49.716;17.158;2024-02-04T08:00:32;0.95;;;0.70;;
77586;SDS011;66744;49.716;17.158;2024-02-04T08:03:38;2.00;;;0.95;;
77586;SDS011;66744;49.716;17.158;2024-02-04T08:06:42;1.77;;;1.05;;
77586;SDS011;66744;49.716;17.158;2024-02-04T08:09:44;1.30;;;1.20;;
77586;SDS011;66744;49.716;17.158;2024-02-04T08:12:46;1.05;;;0.95;;
77586;SDS011;66744;49.716;17.158;2024-02-04T08:15:51;2.38;;;1.27;;
77586;SDS011;66744;49.716;17.158;2024-02-04T08:18:53;1.92;;;1.00;;
77586;SDS011;66744;49.716;17.158;2024-02-04T08:21:56;1.23;;;0.98;;
77586;SDS011;66744;49.716;17.158;2024-02-04T08:24:59;1.50;;;1.10;;
77586;SDS011;66744;49.716;17.158;2024-02-04T08:28:05;2.08;;;1.25;;
77586;SDS011;66744;49.716;17.158;2024-02-04T08:31:13;1.20;;;1.05;;
77586;SDS011;66744;49.716;17.158;2024-02-04T08:34:18;1.63;;;1.08;;
77586;SDS011;66744;49.716;17.158;2024-02-04T08:37:25;1.25;;;1.10;;
77586;SDS011;66744;49.716;17.158;2024-02-04T08:40:28;1.85;;;0.82;;
77586;SDS011;66744;49.716;17.158;2024-02-04T08:43:32;0.77;;;0.65;;
77586;SDS011;66744;49.716;17.158;2024-02-04T08:46:35;1.00;;;0.90;;
77586;SDS011;66744;49.716;17.158;2024-02-04T08:49:38;2.75;;;1.33;;
77586;SDS011;66744;49.716;17.158;2024-02-04T08:52:40;1.20;;;1.10;;
77586;SDS011;66744;49.716;17.158;2024-02-04T08:55:42;0.80;;;0.70;;
77586;SDS011;66744;49.716;17.158;2024-02-04T08:58:50;1.15;;;0.80;;
77586;SDS011;66744;49.716;17.158;2024-02-04T09:02:30;1.05;;;0.88;;
77586;SDS011;66744;49.716;17.158;2024-02-04T09:05:40;0.80;;;0.60;;
77586;SDS011;66744;49.716;17.158;2024-02-04T09:08:42;3.03;;;1.00;;
77586;SDS011;66744;49.716;17.158;2024-02-04T09:11:45;1.70;;;1.20;;
77586;SDS011;66744;49.716;17.158;2024-02-04T09:14:46;1.08;;;0.82;;
77586;SDS011;66744;49.716;17.158;2024-02-04T09:17:49;2.42;;;1.23;;
77586;SDS011;66744;49.716;17.158;2024-02-04T09:20:53;3.92;;;2.13;;
77586;SDS011;66744;49.716;17.158;2024-02-04T09:23:55;1.58;;;1.30;;
77586;SDS011;66744;49.716;17.158;2024-02-04T09:26:58;1.60;;;1.23;;
77586;SDS011;66744;49.716;17.158;2024-02-04T09:30:00;2.25;;;1.23;;
77586;SDS011;66744;49.716;17.158;2024-02-04T09:33:05;1.60;;;1.30;;
77586;SDS011;66744;49.716;17.158;2024-02-04T09:36:09;1.05;;;0.80;;
77586;SDS011;66744;49.716;17.158;2024-02-04T09:39:15;0.95;;;0.55;;
77586;SDS011;66744;49.716;17.158;2024-02-04T09:42:20;0.95;;;0.93;;
77586;SDS011;66744;49.716;17.158;2024-02-04T09:45:23;1.02;;;0.63;;
77586;SDS011;66744;49.716;17.158;2024-02-04T09:48:25;0.77;;;0.68;;
77586;SDS011;66744;49.716;17.158;2024-02-04T09:51:30;0.98;;;0.90;;
77586;SDS011;66744;49.716;17.158;2024-02-04T09:54:38;1.15;;;0.90;;
77586;SDS011;66744;49.716;17.158;2024-02-04T09:57:59;0.80;;;0.70;;
77586;SDS011;66744;49.716;17.158;2024-02-04T10:01:05;0.95;;;0.82;;
77586;SDS011;66744;49.716;17.158;2024-02-04T10:04:12;1.05;;;0.90;;
77586;SDS011;66744;49.716;17.158;2024-02-04T10:07:14;1.27;;;1.17;;
77586;SDS011;66744;49.716;17.158;2024-02-04T10:10:18;0.98;;;0.80;;
77586;SDS011;66744;49.716;17.158;2024-02-04T10:13:22;0.90;;;0.63;;
77586;SDS011;66744;49.716;17.158;2024-02-04T10:16:27;1.52;;;1.05;;
77586;SDS011;66744;49.716;17.158;2024-02-04T10:19:33;0.98;;;0.73;;
77586;SDS011;66744;49.716;17.158;2024-02-04T10:22:37;1.10;;;0.85;;
77586;SDS011;66744;49.716;17.158;2024-02-04T10:25:38;0.88;;;0.73;;
77586;SDS011;66744;49.716;17.158;2024-02-04T10:28:47;1.20;;;1.00;;
77586;SDS011;66744;49.716;17.158;2024-02-04T10:31:56;0.77;;;0.70;;
77586;SDS011;66744;49.716;17.158;2024-02-04T10:35:02;1.40;;;0.88;;
77586;SDS011;66744;49.716;17.158;2024-02-04T10:38:04;1.65;;;0.80;;
77586;SDS011;66744;49.716;17.158;2024-02-04T10:41:07;1.10;;;0.73;;
77586;SDS011;66744;49.716;17.158;2024-02-04T10:44:09;1.75;;;1.20;;
77586;SDS011;66744;49.716;17.158;2024-02-04T10:47:16;1.33;;;1.13;;
77586;SDS011;66744;49.716;17.158;2024-02-04T10:50:25;0.52;;;0.47;;
77586;SDS011;66744;49.716;17.158;2024-02-04T10:53:30;1.10;;;0.90;;
77586;SDS011;66744;49.716;17.158;2024-02-04T10:56:37;1.48;;;0.82;;
77586;SDS011;66744;49.716;17.158;2024-02-04T10:59:46;1.02;;;0.93;;
77586;SDS011;66744;49.716;17.158;2024-02-04T11:02:48;1.52;;;0.70;;
77586;SDS011;66744;49.716;17.158;2024-02-04T11:05:52;1.40;;;0.90;;
77586;SDS011;66744;49.716;17.158;2024-02-04T11:08:56;1.30;;;1.20;;
77586;SDS011;66744;49.716;17.158;2024-02-04T11:12:00;1.15;;;0.90;;
77586;SDS011;66744;49.716;17.158;2024-02-04T11:15:06;0.65;;;0.60;;
77586;SDS011;66744;49.716;17.158;2024-02-04T11:18:16;0.82;;;0.60;;
77586;SDS011;66744;49.716;17.158;2024-02-04T11:21:49;1.17;;;0.85;;
77586;SDS011;66744;49.716;17.158;2024-02-04T11:28:21;0.52;;;0.43;;
77586;SDS011;66744;49.716;17.158;2024-02-04T11:31:22;0.70;;;0.70;;
77586;SDS011;66744;49.716;17.158;2024-02-04T11:34:24;0.75;;;0.60;;
77586;SDS011;66744;49.716;17.158;2024-02-04T11:37:26;0.68;;;0.68;;
77586;SDS011;66744;49.716;17.158;2024-02-04T11:40:35;0.82;;;0.82;;
77586;SDS011;66744;49.716;17.158;2024-02-04T11:43:41;0.65;;;0.65;;
77586;SDS011;66744;49.716;17.158;2024-02-04T11:46:48;0.80;;;0.80;;
77586;SDS011;66744;49.716;17.158;2024-02-04T11:49:58;1.30;;;0.60;;
77586;SDS011;66744;49.716;17.158;2024-02-04T11:53:09;0.82;;;0.77;;
77586;SDS011;66744;49.716;17.158;2024-02-04T11:56:14;0.57;;;0.55;;
77586;SDS011;66744;49.716;17.158;2024-02-04T11:59:15;0.82;;;0.60;;
77586;SDS011;66744;49.716;17.158;2024-02-04T12:02:18;0.65;;;0.60;;
77586;SDS011;66744;49.716;17.158;2024-02-04T12:05:22;1.05;;;0.68;;
77586;SDS011;66744;49.716;17.158;2024-02-04T12:08:25;0.75;;;0.43;;
77586;SDS011;66744;49.716;17.158;2024-02-04T12:11:28;1.58;;;0.70;;
77586;SDS011;66744;49.716;17.158;2024-02-04T12:14:32;0.90;;;0.77;;
77586;SDS011;66744;49.716;17.158;2024-02-04T12:17:39;1.23;;;0.63;;
77586;SDS011;66744;49.716;17.158;2024-02-04T12:20:43;0.55;;;0.40;;
77586;SDS011;66744;49.716;17.158;2024-02-04T12:23:49;0.75;;;0.75;;
77586;SDS011;66744;49.716;17.158;2024-02-04T12:26:50;1.90;;;1.10;;
77586;SDS011;66744;49.716;17.158;2024-02-04T12:29:55;0.70;;;0.50;;
77586;SDS011;66744;49.716;17.158;2024-02-04T12:33:01;0.60;;;0.40;;
77586;SDS011;66744;49.716;17.158;2024-02-04T12:36:08;1.58;;;0.75;;
77586;SDS011;66744;49.716;17.158;2024-02-04T12:39:14;1.38;;;0.40;;
77586;SDS011;66744;49.716;17.158;2024-02-04T12:42:18;0.73;;;0.68;;
77586;SDS011;66744;49.716;17.158;2024-02-04T12:45:22;0.70;;;0.70;;
77586;SDS011;66744;49.716;17.158;2024-02-04T12:48:28;0.85;;;0.47;;
77586;SDS011;66744;49.716;17.158;2024-02-04T12:51:31;0.57;;;0.57;;
77586;SDS011;66744;49.716;17.158;2024-02-04T12:54:42;0.85;;;0.77;;
77586;SDS011;66744;49.716;17.158;2024-02-04T13:01:02;1.17;;;0.52;;
77586;SDS011;66744;49.716;17.158;2024-02-04T13:04:07;0.65;;;0.50;;
77586;SDS011;66744;49.716;17.158;2024-02-04T13:07:13;1.10;;;0.93;;
77586;SDS011;66744;49.716;17.158;2024-02-04T13:10:15;1.25;;;0.80;;
77586;SDS011;66744;49.716;17.158;2024-02-04T13:13:16;1.23;;;0.52;;
77586;SDS011;66744;49.716;17.158;2024-02-04T13:16:20;1.35;;;0.93;;
77586;SDS011;66744;49.716;17.158;2024-02-04T13:19:35;1.00;;;0.88;;
77586;SDS011;66744;49.716;17.158;2024-02-04T13:22:37;1.17;;;0.68;;
77586;SDS011;66744;49.716;17.158;2024-02-04T13:25:46;1.27;;;0.90;;
77586;SDS011;66744;49.716;17.158;2024-02-04T13:28:50;1.20;;;0.77;;
77586;SDS011;66744;49.716;17.158;2024-02-04T13:31:55;1.00;;;0.88;;
77586;SDS011;66744;49.716;17.158;2024-02-04T13:34:58;1.13;;;0.80;;
77586;SDS011;66744;49.716;17.158;2024-02-04T13:38:05;1.05;;;0.52;;
77586;SDS011;66744;49.716;17.158;2024-02-04T13:41:09;2.63;;;1.23;;
77586;SDS011;66744;49.716;17.158;2024-02-04T13:44:16;1.50;;;1.10;;
77586;SDS011;66744;49.716;17.158;2024-02-04T13:47:17;1.35;;;0.90;;
77586;SDS011;66744;49.716;17.158;2024-02-04T13:50:22;1.73;;;0.68;;
77586;SDS011;66744;49.716;17.158;2024-02-04T13:53:23;0.73;;;0.60;;
77586;SDS011;66744;49.716;17.158;2024-02-04T13:56:28;1.55;;;0.73;;
77586;SDS011;66744;49.716;17.158;2024-02-04T13:59:31;1.17;;;0.55;;
77586;SDS011;66744;49.716;17.158;2024-02-04T14:02:36;1.08;;;0.90;;
77586;SDS011;66744;49.716;17.158;2024-02-04T14:05:39;0.70;;;0.50;;
77586;SDS011;66744;49.716;17.158;2024-02-04T14:08:41;1.63;;;0.50;;
77586;SDS011;66744;49.716;17.158;2024-02-04T14:11:45;1.20;;;0.80;;
77586;SDS011;66744;49.716;17.158;2024-02-04T14:14:47;0.70;;;0.65;;
77586;SDS011;66744;49.716;17.158;2024-02-04T14:17:51;1.15;;;0.70;;
77586;SDS011;66744;49.716;17.158;2024-02-04T14:20:52;0.52;;;0.50;;
77586;SDS011;66744;49.716;17.158;2024-02-04T14:23:58;0.55;;;0.50;;
77586;SDS011;66744;49.716;17.158;2024-02-04T14:27:00;0.73;;;0.73;;
77586;SDS011;66744;49.716;17.158;2024-02-04T14:30:05;1.42;;;0.60;;
77586;SDS011;66744;49.716;17.158;2024-02-04T14:33:08;0.80;;;0.77;;
77586;SDS011;66744;49.716;17.158;2024-02-04T14:36:12;0.65;;;0.43;;
77586;SDS011;66744;49.716;17.158;2024-02-04T14:39:15;0.80;;;0.80;;
77586;SDS011;66744;49.716;17.158;2024-02-04T14:42:17;0.68;;;0.68;;
77586;SDS011;66744;49.716;17.158;2024-02-04T14:45:19;1.15;;;0.80;;
77586;SDS011;66744;49.716;17.158;2024-02-04T14:48:22;1.42;;;0.75;;
77586;SDS011;66744;49.716;17.158;2024-02-04T14:51:23;0.60;;;0.60;;
77586;SDS011;66744;49.716;17.158;2024-02-04T14:54:27;0.55;;;0.52;;
77586;SDS011;66744;49.716;17.158;2024-02-04T14:57:30;0.88;;;0.52;;
77586;SDS011;66744;49.716;17.158;2024-02-04T15:00:35;0.90;;;0.65;;
77586;SDS011;66744;49.716;17.158;2024-02-04T15:03:36;1.42;;;0.73;;
77586;SDS011;66744;49.716;17.158;2024-02-04T15:06:44;1.17;;;0.88;;
77586;SDS011;66744;49.716;17.158;2024-02-04T15:09:49;1.15;;;1.02;;
77586;SDS011;66744;49.716;17.158;2024-02-04T15:12:51;0.75;;;0.65;;
77586;SDS011;66744;49.716;17.158;2024-02-04T15:15:54;1.17;;;1.08;;
77586;SDS011;66744;49.716;17.158;2024-02-04T15:19:00;1.05;;;0.60;;
77586;SDS011;66744;49.716;17.158;2024-02-04T15:22:02;0.90;;;0.80;;
77586;SDS011;66744;49.716;17.158;2024-02-04T15:25:05;1.80;;;0.35;;
77586;SDS011;66744;49.716;17.158;2024-02-04T15:28:08;0.80;;;0.55;;
77586;SDS011;66744;49.716;17.158;2024-02-04T15:31:14;0.65;;;0.65;;
77586;SDS011;66744;49.716;17.158;2024-02-04T15:34:16;0.85;;;0.60;;
77586;SDS011;66744;49.716;17.158;2024-02-04T15:37:23;0.88;;;0.52;;
77586;SDS011;66744;49.716;17.158;2024-02-04T15:40:27;0.80;;;0.52;;
77586;SDS011;66744;49.716;17.158;2024-02-04T15:43:32;0.50;;;0.50;;
77586;SDS011;66744;49.716;17.158;2024-02-04T15:46:36;4.57;;;0.90;;
77586;SDS011;66744;49.716;17.158;2024-02-04T15:49:42;1.80;;;0.70;;
77586;SDS011;66744;49.716;17.158;2024-02-04T15:52:51;0.80;;;0.80;;
77586;SDS011;66744;49.716;17.158;2024-02-04T15:55:54;0.80;;;0.70;;
77586;SDS011;66744;49.716;17.158;2024-02-04T15:59:05;1.08;;;0.98;;
77586;SDS011;66744;49.716;17.158;2024-02-04T16:02:12;0.63;;;0.43;;
77586;SDS011;66744;49.716;17.158;2024-02-04T16:05:15;1.17;;;0.57;;
77586;SDS011;66744;49.716;17.158;2024-02-04T16:08:17;0.77;;;0.50;;
77586;SDS011;66744;49.716;17.158;2024-02-04T16:11:19;0.88;;;0.73;;
77586;SDS011;66744;49.716;17.158;2024-02-04T16:14:27;0.90;;;0.77;;
77586;SDS011;66744;49.716;17.158;2024-02-04T16:20:35;1.15;;;0.70;;
77586;SDS011;66744;49.716;17.158;2024-02-04T16:23:45;1.52;;;0.65;;
77586;SDS011;66744;49.716;17.158;2024-02-04T16:26:47;0.85;;;0.70;;
77586;SDS011;66744;49.716;17.158;2024-02-04T16:29:53;0.60;;;0.50;;
77586;SDS011;66744;49.716;17.158;2024-02-04T16:32:54;0.77;;;0.57;;
77586;SDS011;66744;49.716;17.158;2024-02-04T16:35:56;0.68;;;0.43;;
77586;SDS011;66744;49.716;17.158;2024-02-04T16:38:58;1.52;;;0.70;;
77586;SDS011;66744;49.716;17.158;2024-02-04T16:42:02;0.85;;;0.85;;
77586;SDS011;66744;49.716;17.158;2024-02-04T16:45:07;0.63;;;0.63;;
77586;SDS011;66744;49.716;17.158;2024-02-04T16:48:11;0.85;;;0.63;;
77586;SDS011;66744;49.716;17.158;2024-02-04T16:51:16;0.88;;;0.80;;
77586;SDS011;66744;49.716;17.158;2024-02-04T16:54:18;0.90;;;0.65;;
77586;SDS011;66744;49.716;17.158;2024-02-04T16:57:26;1.02;;;0.75;;
77586;SDS011;66744;49.716;17.158;2024-02-04T17:00:31;1.42;;;0.60;;
77586;SDS011;66744;49.716;17.158;2024-02-04T17:03:39;1.20;;;0.88;;
77586;SDS011;66744;49.716;17.158;2024-02-04T17:06:46;0.65;;;0.65;;
77586;SDS011;66744;49.716;17.158;2024-02-04T17:09:48;2.10;;;1.90;;
77586;SDS011;66744;49.716;17.158;2024-02-04T17:12:56;0.80;;;0.52;;
77586;SDS011;66744;49.716;17.158;2024-02-04T17:16:03;0.75;;;0.60;;
77586;SDS011;66744;49.716;17.158;2024-02-04T17:23:16;1.08;;;0.60;;
77586;SDS011;66744;49.716;17.158;2024-02-04T17:26:22;1.33;;;0.80;;
77586;SDS011;66744;49.716;17.158;2024-02-04T17:29:31;1.08;;;0.80;;
77586;SDS011;66744;49.716;17.158;2024-02-04T17:32:33;0.82;;;0.63;;
77586;SDS011;66744;49.716;17.158;2024-02-04T17:35:38;1.00;;;0.68;;
77586;SDS011;66744;49.716;17.158;2024-02-04T17:38:41;1.15;;;0.70;;
77586;SDS011;66744;49.716;17.158;2024-02-04T17:41:44;0.82;;;0.80;;
77586;SDS011;66744;49.716;17.158;2024-02-04T17:44:47;1.88;;;0.80;;
77586;SDS011;66744;49.716;17.158;2024-02-04T17:47:50;1.30;;;0.98;;
77586;SDS011;66744;49.716;17.158;2024-02-04T17:50:54;1.95;;;0.55;;
77586;SDS011;66744;49.716;17.158;2024-02-04T17:53:55;1.42;;;1.08;;
77586;SDS011;66744;49.716;17.158;2024-02-04T17:57:01;1.13;;;1.02;;
77586;SDS011;66744;49.716;17.158;2024-02-04T18:00:08;0.73;;;0.73;;
77586;SDS011;66744;49.716;17.158;2024-02-04T18:03:12;0.85;;;0.60;;
77586;SDS011;66744;49.716;17.158;2024-02-04T18:06:15;0.98;;;0.85;;
77586;SDS011;66744;49.716;17.158;2024-02-04T18:09:19;1.05;;;0.50;;
77586;SDS011;66744;49.716;17.158;2024-02-04T18:12:26;0.68;;;0.60;;
77586;SDS011;66744;49.716;17.158;2024-02-04T18:15:29;0.68;;;0.68;;
77586;SDS011;66744;49.716;17.158;2024-02-04T18:18:31;1.85;;;0.75;;
77586;SDS011;66744;49.716;17.158;2024-02-04T18:21:36;2.58;;;1.40;;
77586;SDS011;66744;49.716;17.158;2024-02-04T18:24:38;0.70;;;0.50;;
77586;SDS011;66744;49.716;17.158;2024-02-04T18:27:42;1.35;;;0.73;;
77586;SDS011;66744;49.716;17.158;2024-02-04T18:30:44;1.40;;;1.20;;
77586;SDS011;66744;49.716;17.158;2024-02-04T18:33:54;1.15;;;0.60;;